sensor_id;sensor_type;location;lat;lon;timestamp;P1;durP1;ratioP1;P2;durP2;ratioP2
77775;SDS011;73554;43.328;6.668;2024-03-17T00:01:06;7.43;;;3.43;;
77775;SDS011;73554;43.328;6.668;2024-03-17T00:03:31;5.55;;;3.35;;
77775;SDS011;73554;43.328;6.668;2024-03-17T00:06:00;7.63;;;3.60;;
77775;SDS011;73554;43.328;6.668;2024-03-17T00:08:25;7.03;;;3.17;;
77775;SDS011;73554;43.328;6.668;2024-03-17T00:10:51;7.00;;;3.15;;
77775;SDS011;73554;43.328;6.668;2024-03-17T00:13:17;6.25;;;2.80;;
77775;SDS011;73554;43.328;6.668;2024-03-17T00:15:42;6.28;;;3.20;;
77775;SDS011;73554;43.328;6.668;2024-03-17T00:18:07;5.87;;;3.30;;
77775;SDS011;73554;43.328;6.668;2024-03-17T00:20:33;6.60;;;2.63;;
77775;SDS011;73554;43.328;6.668;2024-03-17T00:22:59;5.97;;;3.00;;
77775;SDS011;73554;43.328;6.668;2024-03-17T00:25:24;7.00;;;2.97;;
77775;SDS011;73554;43.328;6.668;2024-03-17T00:27:49;5.03;;;2.70;;
77775;SDS011;73554;43.328;6.668;2024-03-17T00:32:41;7.63;;;2.70;;
77775;SDS011;73554;43.328;6.668;2024-03-17T00:35:07;6.53;;;3.00;;
77775;SDS011;73554;43.328;6.668;2024-03-17T00:37:33;6.13;;;2.75;;
77775;SDS011;73554;43.328;6.668;2024-03-17T00:39:59;6.80;;;3.07;;
77775;SDS011;73554;43.328;6.668;2024-03-17T00:42:24;5.57;;;2.78;;
77775;SDS011;73554;43.328;6.668;2024-03-17T00:44:50;5.07;;;2.77;;
77775;SDS011;73554;43.328;6.668;2024-03-17T00:47:15;5.80;;;3.00;;
77775;SDS011;73554;43.328;6.668;2024-03-17T00:49:40;8.33;;;3.07;;
77775;SDS011;73554;43.328;6.668;2024-03-17T00:52:06;5.20;;;2.60;;
77775;SDS011;73554;43.328;6.668;2024-03-17T00:54:31;7.20;;;3.13;;
77775;SDS011;73554;43.328;6.668;2024-03-17T00:56:57;6.05;;;2.88;;
77775;SDS011;73554;43.328;6.668;2024-03-17T00:59:22;6.27;;;2.70;;
77775;SDS011;73554;43.328;6.668;2024-03-17T01:01:50;6.83;;;2.77;;
77775;SDS011;73554;43.328;6.668;2024-03-17T01:04:18;5.45;;;2.72;;
77775;SDS011;73554;43.328;6.668;2024-03-17T01:06:43;4.20;;;2.67;;
77775;SDS011;73554;43.328;6.668;2024-03-17T01:09:08;8.13;;;3.23;;
77775;SDS011;73554;43.328;6.668;2024-03-17T01:11:34;5.43;;;2.43;;
77775;SDS011;73554;43.328;6.668;2024-03-17T01:13:59;5.13;;;2.93;;
77775;SDS011;73554;43.328;6.668;2024-03-17T01:16:24;6.37;;;2.83;;
77775;SDS011;73554;43.328;6.668;2024-03-17T01:18:50;5.40;;;2.70;;
77775;SDS011;73554;43.328;6.668;2024-03-17T01:21:17;4.87;;;2.70;;
77775;SDS011;73554;43.328;6.668;2024-03-17T01:23:43;5.60;;;3.03;;
77775;SDS011;73554;43.328;6.668;2024-03-17T01:26:08;7.43;;;3.47;;
77775;SDS011;73554;43.328;6.668;2024-03-17T01:28:36;5.65;;;3.05;;
77775;SDS011;73554;43.328;6.668;2024-03-17T01:31:05;8.30;;;3.30;;
77775;SDS011;73554;43.328;6.668;2024-03-17T01:33:30;8.23;;;3.00;;
77775;SDS011;73554;43.328;6.668;2024-03-17T01:35:58;6.80;;;2.95;;
77775;SDS011;73554;43.328;6.668;2024-03-17T01:38:23;5.47;;;2.50;;
77775;SDS011;73554;43.328;6.668;2024-03-17T01:43:24;5.60;;;2.70;;
77775;SDS011;73554;43.328;6.668;2024-03-17T01:45:49;8.32;;;2.80;;
77775;SDS011;73554;43.328;6.668;2024-03-17T01:48:15;6.28;;;2.92;;
77775;SDS011;73554;43.328;6.668;2024-03-17T01:50:42;7.85;;;2.88;;
77775;SDS011;73554;43.328;6.668;2024-03-17T01:53:08;4.63;;;2.55;;
77775;SDS011;73554;43.328;6.668;2024-03-17T01:57:59;6.87;;;3.00;;
77775;SDS011;73554;43.328;6.668;2024-03-17T02:00:24;7.60;;;2.90;;
77775;SDS011;73554;43.328;6.668;2024-03-17T03:22:05;5.70;;;2.78;;
77775;SDS011;73554;43.328;6.668;2024-03-17T03:24:31;5.35;;;2.85;;
77775;SDS011;73554;43.328;6.668;2024-03-17T03:29:22;6.28;;;2.53;;
77775;SDS011;73554;43.328;6.668;2024-03-17T03:31:48;6.33;;;3.03;;
77775;SDS011;73554;43.328;6.668;2024-03-17T03:34:13;6.53;;;2.80;;
77775;SDS011;73554;43.328;6.668;2024-03-17T03:36:38;5.37;;;2.20;;
77775;SDS011;73554;43.328;6.668;2024-03-17T03:39:04;6.60;;;3.22;;
77775;SDS011;73554;43.328;6.668;2024-03-17T03:41:35;5.72;;;2.47;;
77775;SDS011;73554;43.328;6.668;2024-03-17T03:44:00;6.15;;;2.70;;
77775;SDS011;73554;43.328;6.668;2024-03-17T03:46:25;8.30;;;2.80;;
77775;SDS011;73554;43.328;6.668;2024-03-17T03:48:51;5.05;;;2.67;;
77775;SDS011;73554;43.328;6.668;2024-03-17T03:51:16;5.90;;;2.53;;
77775;SDS011;73554;43.328;6.668;2024-03-17T03:53:41;7.57;;;2.87;;
77775;SDS011;73554;43.328;6.668;2024-03-17T03:56:07;7.25;;;3.20;;
77775;SDS011;73554;43.328;6.668;2024-03-17T03:58:33;7.20;;;2.67;;
77775;SDS011;73554;43.328;6.668;2024-03-17T04:01:00;5.25;;;2.40;;
77775;SDS011;73554;43.328;6.668;2024-03-17T04:03:25;6.35;;;2.88;;
77775;SDS011;73554;43.328;6.668;2024-03-17T04:05:51;4.60;;;2.70;;
77775;SDS011;73554;43.328;6.668;2024-03-17T04:08:18;6.07;;;2.72;;
77775;SDS011;73554;43.328;6.668;2024-03-17T04:10:44;5.70;;;3.03;;
77775;SDS011;73554;43.328;6.668;2024-03-17T04:13:09;5.27;;;2.67;;
77775;SDS011;73554;43.328;6.668;2024-03-17T04:15:34;5.30;;;2.97;;
77775;SDS011;73554;43.328;6.668;2024-03-17T04:17:59;4.93;;;2.70;;
77775;SDS011;73554;43.328;6.668;2024-03-17T04:20:25;5.93;;;2.80;;
77775;SDS011;73554;43.328;6.668;2024-03-17T04:22:50;5.35;;;2.47;;
77775;SDS011;73554;43.328;6.668;2024-03-17T04:25:16;6.57;;;2.70;;
77775;SDS011;73554;43.328;6.668;2024-03-17T04:27:41;6.43;;;2.63;;
77775;SDS011;73554;43.328;6.668;2024-03-17T04:30:06;7.03;;;2.70;;
77775;SDS011;73554;43.328;6.668;2024-03-17T04:32:32;5.78;;;2.88;;
77775;SDS011;73554;43.328;6.668;2024-03-17T04:34:57;6.15;;;3.10;;
77775;SDS011;73554;43.328;6.668;2024-03-17T04:37:23;7.20;;;2.83;;
77775;SDS011;73554;43.328;6.668;2024-03-17T04:42:16;4.63;;;2.60;;
77775;SDS011;73554;43.328;6.668;2024-03-17T04:44:42;6.03;;;3.08;;
77775;SDS011;73554;43.328;6.668;2024-03-17T04:47:08;8.75;;;4.43;;
77775;SDS011;73554;43.328;6.668;2024-03-17T04:49:41;6.43;;;2.55;;
77775;SDS011;73554;43.328;6.668;2024-03-17T04:52:07;5.13;;;2.58;;
77775;SDS011;73554;43.328;6.668;2024-03-17T04:54:33;8.23;;;2.80;;
77775;SDS011;73554;43.328;6.668;2024-03-17T04:56:58;5.15;;;2.45;;
77775;SDS011;73554;43.328;6.668;2024-03-17T04:59:24;5.87;;;2.97;;
77775;SDS011;73554;43.328;6.668;2024-03-17T05:01:49;5.53;;;2.75;;
77775;SDS011;73554;43.328;6.668;2024-03-17T05:04:15;6.27;;;3.17;;
77775;SDS011;73554;43.328;6.668;2024-03-17T05:06:40;6.57;;;2.72;;
77775;SDS011;73554;43.328;6.668;2024-03-17T05:09:07;5.95;;;2.60;;
77775;SDS011;73554;43.328;6.668;2024-03-17T05:11:32;6.35;;;2.65;;
77775;SDS011;73554;43.328;6.668;2024-03-17T05:13:58;6.88;;;2.67;;
77775;SDS011;73554;43.328;6.668;2024-03-17T05:16:23;5.53;;;3.38;;
77775;SDS011;73554;43.328;6.668;2024-03-17T05:18:49;6.38;;;3.13;;
77775;SDS011;73554;43.328;6.668;2024-03-17T05:21:14;6.68;;;2.75;;
77775;SDS011;73554;43.328;6.668;2024-03-17T05:23:40;5.73;;;3.00;;
77775;SDS011;73554;43.328;6.668;2024-03-17T05:26:05;7.45;;;3.67;;
77775;SDS011;73554;43.328;6.668;2024-03-17T05:28:30;7.90;;;3.03;;
77775;SDS011;73554;43.328;6.668;2024-03-17T05:30:56;5.97;;;2.85;;
77775;SDS011;73554;43.328;6.668;2024-03-17T05:33:22;7.95;;;3.33;;
77775;SDS011;73554;43.328;6.668;2024-03-17T05:35:48;6.90;;;3.33;;
77775;SDS011;73554;43.328;6.668;2024-03-17T05:38:14;6.28;;;3.00;;
77775;SDS011;73554;43.328;6.668;2024-03-17T05:40:39;5.80;;;3.00;;
77775;SDS011;73554;43.328;6.668;2024-03-17T05:43:06;6.28;;;3.00;;
77775;SDS011;73554;43.328;6.668;2024-03-17T05:45:32;5.18;;;2.85;;
77775;SDS011;73554;43.328;6.668;2024-03-17T05:47:57;7.80;;;3.45;;
77775;SDS011;73554;43.328;6.668;2024-03-17T05:50:23;6.68;;;3.50;;
77775;SDS011;73554;43.328;6.668;2024-03-17T05:52:48;4.93;;;2.93;;
77775;SDS011;73554;43.328;6.668;2024-03-17T05:55:13;6.53;;;2.93;;
77775;SDS011;73554;43.328;6.668;2024-03-17T05:57:38;6.73;;;3.40;;
77775;SDS011;73554;43.328;6.668;2024-03-17T06:00:04;5.47;;;3.00;;
77775;SDS011;73554;43.328;6.668;2024-03-17T06:02:29;7.63;;;3.03;;
77775;SDS011;73554;43.328;6.668;2024-03-17T06:04:55;7.32;;;3.42;;
77775;SDS011;73554;43.328;6.668;2024-03-17T06:07:20;5.47;;;3.10;;
77775;SDS011;73554;43.328;6.668;2024-03-17T06:09:45;6.03;;;3.07;;
77775;SDS011;73554;43.328;6.668;2024-03-17T06:12:12;6.60;;;3.42;;
77775;SDS011;73554;43.328;6.668;2024-03-17T06:14:37;7.33;;;3.20;;
77775;SDS011;73554;43.328;6.668;2024-03-17T06:17:03;6.77;;;3.00;;
77775;SDS011;73554;43.328;6.668;2024-03-17T06:19:30;4.97;;;3.03;;
77775;SDS011;73554;43.328;6.668;2024-03-17T06:21:55;5.97;;;2.70;;
77775;SDS011;73554;43.328;6.668;2024-03-17T06:24:21;6.53;;;3.28;;
77775;SDS011;73554;43.328;6.668;2024-03-17T06:32:08;7.05;;;2.90;;
77775;SDS011;73554;43.328;6.668;2024-03-17T06:55:18;8.15;;;4.00;;
77775;SDS011;73554;43.328;6.668;2024-03-17T06:57:46;5.40;;;3.20;;
77775;SDS011;73554;43.328;6.668;2024-03-17T07:00:12;7.27;;;3.30;;
77775;SDS011;73554;43.328;6.668;2024-03-17T07:02:42;5.95;;;2.80;;
77775;SDS011;73554;43.328;6.668;2024-03-17T07:05:14;6.75;;;3.30;;
77775;SDS011;73554;43.328;6.668;2024-03-17T07:07:43;5.75;;;2.92;;
77775;SDS011;73554;43.328;6.668;2024-03-17T07:10:08;5.85;;;3.40;;
77775;SDS011;73554;43.328;6.668;2024-03-17T07:12:34;4.50;;;2.88;;
77775;SDS011;73554;43.328;6.668;2024-03-17T07:14:59;6.95;;;3.30;;
77775;SDS011;73554;43.328;6.668;2024-03-17T07:17:24;6.43;;;3.20;;
77775;SDS011;73554;43.328;6.668;2024-03-17T07:19:50;7.57;;;4.07;;
77775;SDS011;73554;43.328;6.668;2024-03-17T07:22:16;5.53;;;3.72;;
77775;SDS011;73554;43.328;6.668;2024-03-17T07:24:41;5.57;;;3.53;;
77775;SDS011;73554;43.328;6.668;2024-03-17T07:27:09;5.72;;;3.20;;
77775;SDS011;73554;43.328;6.668;2024-03-17T07:29:38;5.68;;;3.03;;
77775;SDS011;73554;43.328;6.668;2024-03-17T07:32:03;5.10;;;3.10;;
77775;SDS011;73554;43.328;6.668;2024-03-17T07:34:32;7.68;;;3.10;;
77775;SDS011;73554;43.328;6.668;2024-03-17T07:36:57;5.53;;;3.72;;
77775;SDS011;73554;43.328;6.668;2024-03-17T07:39:27;9.20;;;3.85;;
77775;SDS011;73554;43.328;6.668;2024-03-17T07:41:55;5.53;;;4.07;;
77775;SDS011;73554;43.328;6.668;2024-03-17T07:44:21;8.85;;;4.40;;
77775;SDS011;73554;43.328;6.668;2024-03-17T07:46:47;14.90;;;5.20;;
77775;SDS011;73554;43.328;6.668;2024-03-17T07:49:13;11.57;;;4.37;;
77775;SDS011;73554;43.328;6.668;2024-03-17T07:51:39;8.50;;;4.25;;
77775;SDS011;73554;43.328;6.668;2024-03-17T07:54:05;8.30;;;4.13;;
77775;SDS011;73554;43.328;6.668;2024-03-17T07:56:30;8.60;;;4.90;;
77775;SDS011;73554;43.328;6.668;2024-03-17T07:58:55;10.80;;;5.93;;
77775;SDS011;73554;43.328;6.668;2024-03-17T08:01:21;13.38;;;4.75;;
77775;SDS011;73554;43.328;6.668;2024-03-17T08:03:47;8.70;;;5.70;;
77775;SDS011;73554;43.328;6.668;2024-03-17T08:06:20;12.20;;;5.22;;
77775;SDS011;73554;43.328;6.668;2024-03-17T08:08:46;8.65;;;4.63;;
77775;SDS011;73554;43.328;6.668;2024-03-17T08:11:11;10.17;;;5.13;;
77775;SDS011;73554;43.328;6.668;2024-03-17T08:13:36;8.40;;;4.53;;
77775;SDS011;73554;43.328;6.668;2024-03-17T08:16:03;8.90;;;4.93;;
77775;SDS011;73554;43.328;6.668;2024-03-17T08:18:31;6.47;;;4.30;;
77775;SDS011;73554;43.328;6.668;2024-03-17T08:20:56;9.13;;;4.30;;
77775;SDS011;73554;43.328;6.668;2024-03-17T08:23:24;8.00;;;5.37;;
77775;SDS011;73554;43.328;6.668;2024-03-17T08:25:53;10.05;;;5.20;;
77775;SDS011;73554;43.328;6.668;2024-03-17T08:28:19;12.07;;;5.40;;
77775;SDS011;73554;43.328;6.668;2024-03-17T08:30:50;8.43;;;4.28;;
77775;SDS011;73554;43.328;6.668;2024-03-17T08:33:15;12.90;;;6.85;;
77775;SDS011;73554;43.328;6.668;2024-03-17T08:35:40;9.80;;;5.37;;
77775;SDS011;73554;43.328;6.668;2024-03-17T08:38:06;9.37;;;4.73;;
77775;SDS011;73554;43.328;6.668;2024-03-17T08:40:31;9.90;;;5.50;;
77775;SDS011;73554;43.328;6.668;2024-03-17T08:42:56;8.43;;;4.07;;
77775;SDS011;73554;43.328;6.668;2024-03-17T08:45:22;9.67;;;4.30;;
77775;SDS011;73554;43.328;6.668;2024-03-17T08:47:50;8.83;;;5.10;;
77775;SDS011;73554;43.328;6.668;2024-03-17T08:50:16;10.43;;;4.55;;
77775;SDS011;73554;43.328;6.668;2024-03-17T08:52:41;11.80;;;4.47;;
77775;SDS011;73554;43.328;6.668;2024-03-17T08:55:07;9.67;;;4.80;;
77775;SDS011;73554;43.328;6.668;2024-03-17T08:57:38;9.50;;;4.45;;
77775;SDS011;73554;43.328;6.668;2024-03-17T09:00:04;9.10;;;4.83;;
77775;SDS011;73554;43.328;6.668;2024-03-17T09:02:30;9.70;;;4.00;;
77775;SDS011;73554;43.328;6.668;2024-03-17T09:04:55;9.90;;;5.10;;
77775;SDS011;73554;43.328;6.668;2024-03-17T09:07:20;8.57;;;5.00;;
77775;SDS011;73554;43.328;6.668;2024-03-17T09:09:46;7.38;;;4.13;;
77775;SDS011;73554;43.328;6.668;2024-03-17T09:12:13;8.50;;;4.50;;
77775;SDS011;73554;43.328;6.668;2024-03-17T09:14:38;6.90;;;4.47;;
77775;SDS011;73554;43.328;6.668;2024-03-17T09:17:06;10.70;;;4.43;;
77775;SDS011;73554;43.328;6.668;2024-03-17T09:19:31;11.10;;;5.60;;
77775;SDS011;73554;43.328;6.668;2024-03-17T09:21:58;11.50;;;5.00;;
77775;SDS011;73554;43.328;6.668;2024-03-17T09:26:49;6.97;;;4.00;;
77775;SDS011;73554;43.328;6.668;2024-03-17T09:29:15;9.20;;;4.90;;
77775;SDS011;73554;43.328;6.668;2024-03-17T09:31:43;9.40;;;4.50;;
77775;SDS011;73554;43.328;6.668;2024-03-17T09:34:08;10.23;;;4.70;;
77775;SDS011;73554;43.328;6.668;2024-03-17T09:36:34;8.73;;;4.82;;
77775;SDS011;73554;43.328;6.668;2024-03-17T09:38:59;8.60;;;4.30;;
77775;SDS011;73554;43.328;6.668;2024-03-17T09:41:29;9.85;;;4.82;;
77775;SDS011;73554;43.328;6.668;2024-03-17T09:46:20;12.27;;;4.87;;
77775;SDS011;73554;43.328;6.668;2024-03-17T09:48:47;10.48;;;4.32;;
77775;SDS011;73554;43.328;6.668;2024-03-17T09:51:18;10.77;;;4.53;;
77775;SDS011;73554;43.328;6.668;2024-03-17T09:53:43;10.27;;;4.50;;
77775;SDS011;73554;43.328;6.668;2024-03-17T09:56:09;7.55;;;4.22;;
77775;SDS011;73554;43.328;6.668;2024-03-17T09:58:36;8.48;;;4.47;;
77775;SDS011;73554;43.328;6.668;2024-03-17T10:01:01;9.23;;;4.32;;
77775;SDS011;73554;43.328;6.668;2024-03-17T10:06:09;9.43;;;4.43;;
77775;SDS011;73554;43.328;6.668;2024-03-17T10:08:44;9.77;;;4.70;;
77775;SDS011;73554;43.328;6.668;2024-03-17T10:11:10;11.48;;;5.32;;
77775;SDS011;73554;43.328;6.668;2024-03-17T10:13:36;8.57;;;4.35;;
77775;SDS011;73554;43.328;6.668;2024-03-17T10:16:01;10.50;;;4.22;;
77775;SDS011;73554;43.328;6.668;2024-03-17T10:18:27;9.60;;;4.57;;
77775;SDS011;73554;43.328;6.668;2024-03-17T10:20:52;9.10;;;3.97;;
77775;SDS011;73554;43.328;6.668;2024-03-17T10:23:21;11.30;;;5.07;;
77775;SDS011;73554;43.328;6.668;2024-03-17T10:25:46;10.40;;;4.15;;
77775;SDS011;73554;43.328;6.668;2024-03-17T10:28:12;9.70;;;3.83;;
77775;SDS011;73554;43.328;6.668;2024-03-17T10:30:38;6.70;;;3.65;;
77775;SDS011;73554;43.328;6.668;2024-03-17T10:33:05;9.77;;;3.80;;
77775;SDS011;73554;43.328;6.668;2024-03-17T10:35:36;13.00;;;4.55;;
77775;SDS011;73554;43.328;6.668;2024-03-17T10:38:06;8.25;;;4.45;;
77775;SDS011;73554;43.328;6.668;2024-03-17T10:42:58;7.85;;;3.83;;
77775;SDS011;73554;43.328;6.668;2024-03-17T10:45:25;6.82;;;4.00;;
77775;SDS011;73554;43.328;6.668;2024-03-17T10:47:51;8.55;;;4.13;;
77775;SDS011;73554;43.328;6.668;2024-03-17T10:50:17;8.23;;;4.40;;
77775;SDS011;73554;43.328;6.668;2024-03-17T10:52:44;10.13;;;4.43;;
77775;SDS011;73554;43.328;6.668;2024-03-17T10:55:11;9.65;;;4.05;;
77775;SDS011;73554;43.328;6.668;2024-03-17T10:57:46;6.95;;;3.60;;
77775;SDS011;73554;43.328;6.668;2024-03-17T11:00:14;6.78;;;3.90;;
77775;SDS011;73554;43.328;6.668;2024-03-17T11:02:43;8.88;;;4.25;;
77775;SDS011;73554;43.328;6.668;2024-03-17T11:05:18;8.32;;;3.90;;
77775;SDS011;73554;43.328;6.668;2024-03-17T11:07:45;12.57;;;4.65;;
77775;SDS011;73554;43.328;6.668;2024-03-17T11:10:15;9.10;;;3.72;;
77775;SDS011;73554;43.328;6.668;2024-03-17T11:12:42;7.85;;;3.42;;
77775;SDS011;73554;43.328;6.668;2024-03-17T11:20:15;8.70;;;3.58;;
77775;SDS011;73554;43.328;6.668;2024-03-17T11:22:42;7.65;;;4.85;;
77775;SDS011;73554;43.328;6.668;2024-03-17T11:27:53;9.27;;;3.55;;
77775;SDS011;73554;43.328;6.668;2024-03-17T11:46:43;9.65;;;4.07;;
77775;SDS011;73554;43.328;6.668;2024-03-17T11:49:19;7.22;;;4.32;;
77775;SDS011;73554;43.328;6.668;2024-03-17T11:51:45;11.50;;;4.90;;
77775;SDS011;73554;43.328;6.668;2024-03-17T11:54:17;10.75;;;5.90;;
77775;SDS011;73554;43.328;6.668;2024-03-17T11:56:47;7.82;;;3.90;;
77775;SDS011;73554;43.328;6.668;2024-03-17T11:59:13;9.38;;;4.30;;
77775;SDS011;73554;43.328;6.668;2024-03-17T12:01:39;9.53;;;4.63;;
77775;SDS011;73554;43.328;6.668;2024-03-17T12:04:05;11.10;;;4.57;;
77775;SDS011;73554;43.328;6.668;2024-03-17T12:11:37;11.55;;;5.00;;
77775;SDS011;73554;43.328;6.668;2024-03-17T12:14:13;8.37;;;4.40;;
77775;SDS011;73554;43.328;6.668;2024-03-17T12:16:46;9.82;;;4.05;;
77775;SDS011;73554;43.328;6.668;2024-03-17T12:19:11;7.35;;;4.15;;
77775;SDS011;73554;43.328;6.668;2024-03-17T12:21:37;12.73;;;4.47;;
77775;SDS011;73554;43.328;6.668;2024-03-17T12:24:06;10.93;;;5.15;;
77775;SDS011;73554;43.328;6.668;2024-03-17T12:26:37;8.93;;;4.50;;
77775;SDS011;73554;43.328;6.668;2024-03-17T12:29:03;9.70;;;4.25;;
77775;SDS011;73554;43.328;6.668;2024-03-17T12:31:29;8.10;;;4.45;;
77775;SDS011;73554;43.328;6.668;2024-03-17T12:33:54;9.13;;;4.70;;
77775;SDS011;73554;43.328;6.668;2024-03-17T12:36:19;8.63;;;3.38;;
77775;SDS011;73554;43.328;6.668;2024-03-17T12:38:45;9.90;;;3.13;;
77775;SDS011;73554;43.328;6.668;2024-03-17T12:41:17;8.80;;;3.88;;
77775;SDS011;73554;43.328;6.668;2024-03-17T12:43:48;7.95;;;3.70;;
77775;SDS011;73554;43.328;6.668;2024-03-17T12:46:14;8.43;;;3.83;;
77775;SDS011;73554;43.328;6.668;2024-03-17T12:48:39;7.50;;;4.00;;
77775;SDS011;73554;43.328;6.668;2024-03-17T12:51:05;7.37;;;3.50;;
77775;SDS011;73554;43.328;6.668;2024-03-17T12:53:38;8.60;;;4.10;;
77775;SDS011;73554;43.328;6.668;2024-03-17T12:56:03;9.77;;;4.10;;
77775;SDS011;73554;43.328;6.668;2024-03-17T12:58:47;8.63;;;4.38;;
77775;SDS011;73554;43.328;6.668;2024-03-17T13:01:31;8.10;;;4.25;;
77775;SDS011;73554;43.328;6.668;2024-03-17T13:04:04;9.87;;;4.30;;
77775;SDS011;73554;43.328;6.668;2024-03-17T13:06:29;8.48;;;4.20;;
77775;SDS011;73554;43.328;6.668;2024-03-17T13:08:55;8.43;;;4.43;;
77775;SDS011;73554;43.328;6.668;2024-03-17T13:11:20;8.03;;;4.30;;
77775;SDS011;73554;43.328;6.668;2024-03-17T13:13:47;9.60;;;3.58;;
77775;SDS011;73554;43.328;6.668;2024-03-17T13:16:13;6.85;;;4.10;;
77775;SDS011;73554;43.328;6.668;2024-03-17T13:18:38;8.83;;;4.37;;
77775;SDS011;73554;43.328;6.668;2024-03-17T13:21:03;7.33;;;3.93;;
77775;SDS011;73554;43.328;6.668;2024-03-17T13:23:29;6.93;;;3.60;;
77775;SDS011;73554;43.328;6.668;2024-03-17T13:25:55;8.32;;;4.75;;
77775;SDS011;73554;43.328;6.668;2024-03-17T13:28:20;9.33;;;4.07;;
77775;SDS011;73554;43.328;6.668;2024-03-17T13:30:45;9.83;;;4.07;;
77775;SDS011;73554;43.328;6.668;2024-03-17T13:33:12;7.55;;;4.05;;
77775;SDS011;73554;43.328;6.668;2024-03-17T13:35:38;9.57;;;3.75;;
77775;SDS011;73554;43.328;6.668;2024-03-17T13:38:04;8.23;;;3.20;;
77775;SDS011;73554;43.328;6.668;2024-03-17T13:40:32;7.85;;;3.50;;
77775;SDS011;73554;43.328;6.668;2024-03-17T13:42:57;8.40;;;3.95;;
77775;SDS011;73554;43.328;6.668;2024-03-17T13:45:27;8.10;;;3.85;;
77775;SDS011;73554;43.328;6.668;2024-03-17T13:48:00;5.97;;;3.22;;
77775;SDS011;73554;43.328;6.668;2024-03-17T13:50:26;9.68;;;3.60;;
77775;SDS011;73554;43.328;6.668;2024-03-17T13:52:51;6.78;;;3.60;;
77775;SDS011;73554;43.328;6.668;2024-03-17T13:55:18;8.07;;;3.70;;
77775;SDS011;73554;43.328;6.668;2024-03-17T13:57:44;9.95;;;3.65;;
77775;SDS011;73554;43.328;6.668;2024-03-17T14:00:09;8.27;;;3.38;;
77775;SDS011;73554;43.328;6.668;2024-03-17T14:02:35;10.32;;;3.38;;
77775;SDS011;73554;43.328;6.668;2024-03-17T14:05:00;10.50;;;3.40;;
77775;SDS011;73554;43.328;6.668;2024-03-17T14:09:52;8.50;;;3.50;;
77775;SDS011;73554;43.328;6.668;2024-03-17T14:12:17;8.53;;;3.70;;
77775;SDS011;73554;43.328;6.668;2024-03-17T14:14:42;11.70;;;4.40;;
77775;SDS011;73554;43.328;6.668;2024-03-17T14:17:11;7.30;;;3.78;;
77775;SDS011;73554;43.328;6.668;2024-03-17T14:19:36;6.72;;;4.10;;
77775;SDS011;73554;43.328;6.668;2024-03-17T14:22:01;7.35;;;3.70;;
77775;SDS011;73554;43.328;6.668;2024-03-17T14:24:27;8.03;;;3.90;;
77775;SDS011;73554;43.328;6.668;2024-03-17T14:26:53;10.10;;;4.85;;
77775;SDS011;73554;43.328;6.668;2024-03-17T14:29:18;7.87;;;3.37;;
77775;SDS011;73554;43.328;6.668;2024-03-17T14:31:44;7.03;;;3.50;;
77775;SDS011;73554;43.328;6.668;2024-03-17T14:34:10;6.00;;;3.53;;
77775;SDS011;73554;43.328;6.668;2024-03-17T14:36:36;8.10;;;4.05;;
77775;SDS011;73554;43.328;6.668;2024-03-17T14:39:02;13.07;;;3.47;;
77775;SDS011;73554;43.328;6.668;2024-03-17T14:41:28;14.60;;;3.90;;
77775;SDS011;73554;43.328;6.668;2024-03-17T14:43:54;9.63;;;3.83;;
77775;SDS011;73554;43.328;6.668;2024-03-17T14:46:20;9.05;;;4.75;;
77775;SDS011;73554;43.328;6.668;2024-03-17T14:48:45;7.40;;;3.97;;
77775;SDS011;73554;43.328;6.668;2024-03-17T14:51:10;7.32;;;3.67;;
77775;SDS011;73554;43.328;6.668;2024-03-17T14:53:36;12.88;;;3.67;;
77775;SDS011;73554;43.328;6.668;2024-03-17T14:56:07;10.10;;;3.55;;
77775;SDS011;73554;43.328;6.668;2024-03-17T14:58:32;7.10;;;4.13;;
77775;SDS011;73554;43.328;6.668;2024-03-17T15:00:58;10.70;;;4.57;;
77775;SDS011;73554;43.328;6.668;2024-03-17T15:03:23;11.18;;;4.03;;
77775;SDS011;73554;43.328;6.668;2024-03-17T15:05:49;11.23;;;4.13;;
77775;SDS011;73554;43.328;6.668;2024-03-17T15:08:14;9.83;;;4.13;;
77775;SDS011;73554;43.328;6.668;2024-03-17T15:10:39;8.90;;;3.80;;
77775;SDS011;73554;43.328;6.668;2024-03-17T15:13:04;11.43;;;3.90;;
77775;SDS011;73554;43.328;6.668;2024-03-17T15:15:30;9.63;;;3.80;;
77775;SDS011;73554;43.328;6.668;2024-03-17T15:17:55;7.83;;;3.93;;
77775;SDS011;73554;43.328;6.668;2024-03-17T15:20:20;8.38;;;3.42;;
77775;SDS011;73554;43.328;6.668;2024-03-17T15:22:47;7.70;;;3.55;;
77775;SDS011;73554;43.328;6.668;2024-03-17T15:25:12;9.93;;;3.45;;
77775;SDS011;73554;43.328;6.668;2024-03-17T15:27:39;10.38;;;4.70;;
77775;SDS011;73554;43.328;6.668;2024-03-17T15:30:05;8.60;;;3.40;;
77775;SDS011;73554;43.328;6.668;2024-03-17T15:32:30;7.22;;;3.50;;
77775;SDS011;73554;43.328;6.668;2024-03-17T15:34:56;7.40;;;3.78;;
77775;SDS011;73554;43.328;6.668;2024-03-17T15:37:24;11.38;;;4.32;;
77775;SDS011;73554;43.328;6.668;2024-03-17T15:39:49;12.70;;;3.40;;
77775;SDS011;73554;43.328;6.668;2024-03-17T15:42:14;9.13;;;3.73;;
77775;SDS011;73554;43.328;6.668;2024-03-17T15:44:39;6.87;;;3.63;;
77775;SDS011;73554;43.328;6.668;2024-03-17T15:47:05;9.10;;;4.07;;
77775;SDS011;73554;43.328;6.668;2024-03-17T15:49:30;6.43;;;3.50;;
77775;SDS011;73554;43.328;6.668;2024-03-17T15:51:56;7.75;;;3.40;;
77775;SDS011;73554;43.328;6.668;2024-03-17T15:54:22;8.55;;;3.38;;
77775;SDS011;73554;43.328;6.668;2024-03-17T15:56:47;8.75;;;3.55;;
77775;SDS011;73554;43.328;6.668;2024-03-17T15:59:13;7.60;;;3.43;;
77775;SDS011;73554;43.328;6.668;2024-03-17T16:01:38;6.20;;;3.40;;
77775;SDS011;73554;43.328;6.668;2024-03-17T16:04:06;11.48;;;4.00;;
77775;SDS011;73554;43.328;6.668;2024-03-17T16:06:32;8.47;;;3.70;;
77775;SDS011;73554;43.328;6.668;2024-03-17T16:08:57;10.50;;;4.07;;
77775;SDS011;73554;43.328;6.668;2024-03-17T16:11:24;10.02;;;3.80;;
77775;SDS011;73554;43.328;6.668;2024-03-17T16:13:55;8.40;;;3.47;;
77775;SDS011;73554;43.328;6.668;2024-03-17T16:16:25;7.80;;;3.40;;
77775;SDS011;73554;43.328;6.668;2024-03-17T17:02:46;9.50;;;3.28;;
77775;SDS011;73554;43.328;6.668;2024-03-17T17:05:14;10.75;;;3.05;;
77775;SDS011;73554;43.328;6.668;2024-03-17T17:07:42;5.90;;;2.88;;
77775;SDS011;73554;43.328;6.668;2024-03-17T17:10:11;6.28;;;2.83;;
77775;SDS011;73554;43.328;6.668;2024-03-17T17:12:37;7.95;;;3.10;;
77775;SDS011;73554;43.328;6.668;2024-03-17T17:15:03;7.22;;;3.50;;
77775;SDS011;73554;43.328;6.668;2024-03-17T17:17:29;6.63;;;2.80;;
77775;SDS011;73554;43.328;6.668;2024-03-17T17:19:54;5.88;;;3.13;;
77775;SDS011;73554;43.328;6.668;2024-03-17T17:22:20;6.30;;;3.10;;
77775;SDS011;73554;43.328;6.668;2024-03-17T17:24:46;8.90;;;3.25;;
77775;SDS011;73554;43.328;6.668;2024-03-17T17:27:11;5.30;;;2.88;;
77775;SDS011;73554;43.328;6.668;2024-03-17T17:29:38;6.80;;;3.25;;
77775;SDS011;73554;43.328;6.668;2024-03-17T17:32:04;6.40;;;2.78;;
77775;SDS011;73554;43.328;6.668;2024-03-17T17:34:32;5.55;;;2.50;;
77775;SDS011;73554;43.328;6.668;2024-03-17T17:36:57;6.03;;;2.72;;
77775;SDS011;73554;43.328;6.668;2024-03-17T17:39:22;9.07;;;2.90;;
77775;SDS011;73554;43.328;6.668;2024-03-17T17:41:47;6.07;;;2.90;;
77775;SDS011;73554;43.328;6.668;2024-03-17T17:44:15;6.00;;;2.80;;
77775;SDS011;73554;43.328;6.668;2024-03-17T17:46:40;6.38;;;2.58;;
77775;SDS011;73554;43.328;6.668;2024-03-17T17:49:05;6.67;;;3.07;;
77775;SDS011;73554;43.328;6.668;2024-03-17T17:51:31;7.10;;;3.20;;
77775;SDS011;73554;43.328;6.668;2024-03-17T17:53:58;6.95;;;2.67;;
77775;SDS011;73554;43.328;6.668;2024-03-17T17:56:24;6.97;;;2.97;;
77775;SDS011;73554;43.328;6.668;2024-03-17T17:58:49;5.33;;;3.60;;
77775;SDS011;73554;43.328;6.668;2024-03-17T18:01:16;6.80;;;2.78;;
77775;SDS011;73554;43.328;6.668;2024-03-17T18:03:42;5.85;;;2.65;;